Terminal Aerodrome Forecast
Issued by NWS

Home | Current Version | Previous Version | Text Only | Print | Product List | Glossary On
Versions: 1 2 3 4 5 6 7 8 9 10 11 12 13 14 15 16 17 18 19 20 21 22 23 24 25 26 27 28 29 30 31 32 33 34
000
FTUS46 KOTX 211139
TAFCOE
TAF
KCOE 211139Z 2112/2212 06007KT P6SM SCT050 OVC080
     FM211500 05009KT 6SM -SHSN OVC030
     FM211700 05005KT 4SM -SN OVC022
     FM212000 05004KT P6SM BKN030 OVC050
     FM220600 10007KT P6SM -SHSNRA OVC030=

USA.gov is the U.S. government's official web portal to all federal, state and local government web resources and services.